Details From TTCP - Tobago/Crown Point Intl
To TAPA - Antigua - V C Bird Intl
Flight Number -
Tags decoded
Created
Modified
Stats Distance 394 nm / 729 km
Max Altitude 0 ft / 0 m
Waypoints 11
Social Downloads 5
Likes 0
Share VATSIM

Download

Looking for another format? Having issues loading an existing format? Contact us
Advertisement - Login to hide

Notes

Requested: TTCP DEBOP DANOT RAKAN DAMOV FOF PPR BIMBO ANU99 ANU04 TAPA

Route

TTCP DEBOP DANOT RAKAN DAMOV FOF PPR KASKI ANU99 ANU04 TAPA

ID Type Via Altitude Latitude Longitude Leg Dist Tot Dist Heading (true) Name
O TTCP APT - 0 ft / 0 m 11.14966˚ -60.83220˚ - 0 nm - Tobago/Crown Point Intl
DEBOP FIX - 0 ft / 0 m 11.13667˚ -60.64834˚ 10 nm 10 nm 94° / 94° -
DANOT FIX - 0 ft / 0 m 11.48167˚ -60.60000˚ 20 nm 31 nm 8° / 8° -
RAKAN FIX - 0 ft / 0 m 12.58667˚ -60.53889˚ 66 nm 98 nm 3° / 3° -
DAMOV FIX - 0 ft / 0 m 13.48278˚ -60.63444˚ 54 nm 152 nm 354° / 354° -
FOF NDB - 0 ft / 0 m 14.58908˚ -61.00131˚ 69 nm 222 nm 342° / 342° MARTINIQUE NDB
PPR VOR - 0 ft / 0 m 16.26528˚ -61.54000˚ 105 nm 327 nm 343° / 343° POINTE A PITRE VOR-DME
KASKI FIX - 0 ft / 0 m 16.71028˚ -61.67444˚ 27 nm 355 nm 344° / 344° -
ANU99 FIX - 0 ft / 0 m 17.02230˚ -61.97920˚ 25 nm 381 nm 317° / 317° -
ANU04 FIX - 0 ft / 0 m 17.10186˚ -61.86519˚ 8 nm 389 nm 54° / 54° -
O TAPA APT - 0 ft / 0 m 17.13674˚ -61.79266˚ 4 nm 393 nm 63° / 63° Antigua - V C Bird Intl

Altitude Profile

Advertisement - Login to hide

Weather


0- 5 10 15 20 25 30 35+ Temperature / ° C

Clouds and Precipitation
Forecast for 2017-12-12 06:00 UTC. Updated an hour ago

Ground ~20,000 ft ~40,000 ft Winds

TTCP

Details ICAO TTCP (TAB)
Name Tobago/Crown Point Intl
Region Trinidad and Tobago
Timezone America/Port_of_Spain (UTC-4.0)
Stats Elevation 36 ft / 11 m (AMSL)
Location 11.149660° -60.832196°
Runways 1
Magnetic Variation 15.193° W

METAR

TTCP 120600Z 00000KT 9999 FEW016 23/20 Q1011 NOSIG

Decode

TAF

Not found

Departure Runways

ID Width Length Bearing (true) Bearing (mag) Surface Threshold Offset Overrun Length
11 148 ft / 45 m 8,995 ft / 2,742 m 94.17° 109.36° Asphalt 1,004 ft / 306 m 0 ft / 0 m
29 148 ft / 45 m 8,995 ft / 2,742 m 274.17° 289.36° Asphalt 0 ft / 0 m 299 ft / 91 m

TAPA

Details ICAO TAPA (ANU)
Name Antigua - V C Bird Intl
Region Antigua and Barbuda
Timezone America/Antigua (UTC-4.0)
Stats Elevation 62 ft / 19 m (AMSL)
Location 17.136737° -61.792662°
Runways 1
Magnetic Variation 14.766° W

METAR

TAPA 120600Z VRB02KT 9999 FEW018 BKN040 23/22 Q1012 NOSIG

Decode

TAF

Not found

Destination Runways

ID Width Length Bearing (true) Bearing (mag) Surface Threshold Offset Overrun Length
07 148 ft / 45 m 9,022 ft / 2,750 m 58.28° 73.05° Asphalt 656 ft / 200 m 0 ft / 0 m
25 148 ft / 45 m 9,022 ft / 2,750 m 238.29° 253.06° Asphalt 0 ft / 0 m 0 ft / 0 m

Popular Alternatives